createdAt,value
2019-03-24T00:00:16.899Z,112.57
2019-03-24T00:02:58.131Z,109.03
2019-03-24T00:05:38.987Z,123.63
2019-03-24T00:08:20.287Z,127.50
2019-03-24T00:11:01.657Z,115.03
2019-03-24T00:13:42.710Z,105.80
2019-03-24T00:16:23.576Z,106.83
2019-03-24T00:19:04.537Z,103.87
2019-03-24T00:21:45.809Z,150.07
2019-03-24T00:24:26.767Z,162.43
2019-03-24T00:27:07.476Z,123.27
2019-03-24T00:29:48.712Z,135.93
2019-03-24T00:32:29.647Z,128.30
2019-03-24T00:35:10.087Z,122.17
2019-03-24T00:37:50.665Z,120.63
2019-03-24T00:40:31.611Z,121.97
2019-03-24T00:43:12.893Z,140.17
2019-03-24T00:45:54.076Z,127.83
2019-03-24T00:48:36.354Z,128.60
2019-03-24T00:51:17.350Z,125.07
2019-03-24T00:53:58.066Z,135.23
2019-03-24T00:56:39.553Z,121.20
2019-03-24T00:59:20.877Z,110.13
2019-03-24T01:02:01.860Z,108.10
2019-03-24T01:04:43.117Z,107.00
2019-03-24T01:07:24.398Z,110.87
2019-03-24T01:10:05.435Z,103.10
2019-03-24T01:12:46.404Z,101.83
2019-03-24T01:15:27.090Z,97.13
2019-03-24T01:18:07.682Z,93.07
2019-03-24T01:20:47.767Z,89.77
2019-03-24T01:23:28.252Z,82.77
2019-03-24T01:26:08.905Z,77.23
2019-03-24T01:28:49.524Z,68.93
2019-03-24T01:31:30.227Z,65.00
2019-03-24T01:34:10.650Z,60.07
2019-03-24T01:36:51.721Z,57.37
2019-03-24T01:39:32.271Z,56.27
2019-03-24T01:42:12.826Z,51.87
2019-03-24T01:44:54.171Z,47.40
2019-03-24T01:47:35.359Z,44.60
2019-03-24T01:50:16.763Z,43.93
2019-03-24T01:52:57.288Z,40.17
2019-03-24T01:55:38.248Z,38.83
2019-03-24T01:58:18.883Z,38.17
2019-03-24T02:00:59.853Z,35.53
2019-03-24T02:03:40.802Z,35.27
2019-03-24T02:06:21.763Z,34.17
2019-03-24T02:09:02.715Z,34.30
2019-03-24T02:11:44.108Z,36.20
2019-03-24T02:14:25.292Z,35.67
2019-03-24T02:17:06.241Z,37.90
2019-03-24T02:19:47.198Z,36.07
2019-03-24T02:22:28.476Z,34.50
2019-03-24T02:25:09.447Z,32.23
2019-03-24T02:27:51.059Z,31.43
2019-03-24T02:30:32.240Z,32.53
2019-03-24T02:33:13.598Z,31.07
2019-03-24T02:35:54.924Z,31.57
2019-03-24T02:38:35.691Z,31.03
2019-03-24T02:41:17.101Z,31.60
2019-03-24T02:43:58.405Z,29.23
2019-03-24T02:46:40.006Z,29.07
2019-03-24T02:49:21.300Z,31.03
2019-03-24T02:52:01.937Z,31.77
2019-03-24T02:54:43.233Z,30.87
2019-03-24T02:57:23.866Z,28.70
2019-03-24T03:00:04.445Z,29.60
2019-03-24T03:02:45.780Z,33.40
2019-03-24T03:05:26.537Z,31.20
2019-03-24T03:08:07.738Z,29.23
2019-03-24T03:10:48.568Z,30.50
2019-03-24T03:13:29.114Z,29.67
2019-03-24T03:16:10.612Z,29.07
2019-03-24T03:18:51.423Z,28.20
2019-03-24T03:21:31.875Z,30.30
2019-03-24T03:24:12.804Z,28.70
2019-03-24T03:26:54.090Z,29.40
2019-03-24T03:29:35.688Z,28.60
2019-03-24T03:32:16.661Z,28.67
2019-03-24T03:34:57.618Z,28.83
2019-03-24T03:37:38.434Z,29.27
2019-03-24T03:40:19.778Z,29.07
2019-03-24T03:43:00.767Z,27.07
2019-03-24T03:45:41.613Z,27.23
2019-03-24T03:48:23.058Z,26.00
2019-03-24T03:51:04.636Z,24.63
2019-03-24T03:53:45.665Z,24.27
2019-03-24T03:56:26.754Z,24.27
2019-03-24T03:59:07.737Z,25.30
2019-03-24T04:01:48.599Z,24.73
2019-03-24T04:04:29.149Z,24.23
2019-03-24T04:26:21.093Z,21.23
2019-03-24T04:29:02.113Z,18.95
2019-03-24T04:31:42.714Z,20.17
2019-03-24T04:34:23.718Z,21.33
2019-03-24T04:37:04.668Z,21.05
2019-03-24T04:39:45.204Z,19.20
2019-03-24T04:42:26.550Z,18.10
2019-03-24T04:45:07.240Z,19.03
2019-03-24T04:47:48.170Z,17.57
2019-03-24T04:50:29.487Z,18.32
2019-03-24T04:53:10.659Z,14.97
2019-03-24T04:55:51.657Z,13.80
2019-03-24T04:58:32.918Z,11.43
2019-03-24T05:01:13.946Z,11.80
2019-03-24T05:03:54.849Z,12.20
2019-03-24T05:06:35.816Z,12.55
2019-03-24T05:09:18.350Z,14.95
2019-03-24T05:11:59.012Z,13.43
2019-03-24T05:14:39.646Z,12.90
2019-03-24T05:17:26.941Z,12.23
2019-03-24T05:20:02.621Z,13.05
2019-03-24T05:22:43.871Z,14.03
2019-03-24T05:25:25.011Z,14.20
2019-03-24T05:28:06.102Z,13.60
2019-03-24T05:30:47.058Z,14.23
2019-03-24T05:33:27.746Z,12.23
2019-03-24T05:36:08.342Z,13.25
2019-03-24T05:38:48.746Z,12.70
2019-03-24T05:41:29.957Z,16.30
2019-03-24T05:44:10.912Z,13.90
2019-03-24T05:46:51.972Z,13.03
2019-03-24T05:49:33.087Z,13.80
2019-03-24T05:52:13.964Z,13.10
2019-03-24T05:54:54.961Z,12.63
2019-03-24T05:57:36.296Z,13.00
2019-03-24T06:00:17.501Z,12.50
2019-03-24T06:02:58.913Z,12.70
2019-03-24T06:05:39.771Z,12.23
2019-03-24T06:08:20.836Z,13.93
2019-03-24T06:11:01.731Z,14.30
2019-03-24T06:13:42.474Z,14.18
2019-03-24T06:16:23.404Z,13.50
2019-03-24T06:19:03.784Z,16.93
2019-03-24T06:21:44.927Z,11.63
2019-03-24T06:24:26.235Z,11.03
2019-03-24T06:27:07.770Z,11.18
2019-03-24T06:29:48.265Z,13.95
2019-03-24T06:32:29.794Z,14.70
2019-03-24T06:35:10.973Z,11.15
2019-03-24T06:37:52.677Z,11.17
2019-03-24T06:40:33.321Z,10.90
2019-03-24T06:43:13.951Z,10.63
2019-03-24T06:45:54.814Z,9.88
2019-03-24T06:48:35.872Z,10.28
2019-03-24T06:51:17.066Z,14.45
2019-03-24T06:53:58.036Z,12.65
2019-03-24T06:56:38.780Z,13.08
2019-03-24T06:59:19.472Z,12.07
2019-03-24T07:02:00.523Z,12.00
2019-03-24T07:04:41.162Z,14.35
2019-03-24T07:07:22.225Z,13.13
2019-03-24T07:10:02.795Z,11.60
2019-03-24T07:12:43.553Z,10.58
2019-03-24T07:15:24.836Z,10.45
2019-03-24T07:18:08.744Z,10.98
2019-03-24T07:20:47.704Z,11.48
2019-03-24T07:23:29.521Z,10.45
2019-03-24T07:26:10.990Z,10.85
2019-03-24T07:28:51.878Z,12.25
2019-03-24T07:31:32.233Z,12.30
2019-03-24T07:34:13.142Z,12.33
2019-03-24T07:36:54.370Z,12.45
2019-03-24T07:39:35.579Z,12.47
2019-03-24T07:42:17.204Z,11.68
2019-03-24T07:44:58.457Z,11.03
2019-03-24T07:47:39.252Z,12.03
2019-03-24T07:50:19.931Z,12.30
2019-03-24T07:53:00.704Z,12.13
2019-03-24T07:55:41.649Z,10.08
2019-03-24T07:58:22.191Z,10.35
2019-03-24T08:01:02.672Z,10.90
2019-03-24T08:03:43.565Z,10.95
2019-03-24T08:06:24.684Z,10.20
2019-03-24T08:09:06.072Z,10.40
2019-03-24T08:11:46.544Z,11.25
2019-03-24T08:14:27.777Z,10.38
2019-03-24T08:17:09.156Z,10.50
2019-03-24T08:19:50.099Z,10.05
2019-03-24T08:22:31.058Z,10.45
2019-03-24T08:25:12.019Z,11.23
2019-03-24T08:27:53.286Z,10.58
2019-03-24T08:30:33.877Z,10.63
2019-03-24T08:33:15.243Z,10.93
2019-03-24T08:35:56.245Z,11.45
2019-03-24T08:38:37.467Z,10.88
2019-03-24T08:41:18.459Z,9.83
2019-03-24T08:43:59.061Z,9.83
2019-03-24T08:46:39.728Z,9.10
2019-03-24T08:49:20.664Z,10.00
2019-03-24T08:52:01.219Z,10.10
2019-03-24T08:54:42.033Z,8.47
2019-03-24T08:57:22.597Z,8.70
2019-03-24T09:00:04.030Z,7.17
2019-03-24T09:02:45.164Z,12.60
2019-03-24T09:05:26.766Z,15.48
2019-03-24T09:08:07.701Z,9.83
2019-03-24T09:10:48.484Z,17.80
2019-03-24T09:13:29.970Z,14.20
2019-03-24T09:16:10.942Z,8.78
2019-03-24T09:18:53.030Z,10.35
2019-03-24T09:21:33.804Z,10.30
2019-03-24T09:24:14.510Z,10.65
2019-03-24T09:26:55.721Z,17.20
2019-03-24T09:29:36.997Z,9.43
2019-03-24T09:32:17.975Z,9.85
2019-03-24T09:34:58.646Z,10.35
2019-03-24T09:37:39.445Z,10.68
2019-03-24T09:40:21.173Z,9.95
2019-03-24T09:43:04.035Z,10.53
2019-03-24T09:45:45.317Z,11.10
2019-03-24T09:48:26.115Z,13.27
2019-03-24T09:51:07.280Z,10.23
2019-03-24T09:53:47.872Z,10.40
2019-03-24T09:56:29.369Z,11.50
2019-03-24T09:59:10.650Z,11.05
2019-03-24T10:01:51.939Z,11.40
2019-03-24T10:04:32.647Z,11.50
2019-03-24T10:07:13.849Z,10.80
2019-03-24T10:09:55.441Z,10.98
2019-03-24T10:12:36.210Z,12.88
2019-03-24T10:15:17.381Z,11.50
2019-03-24T10:17:58.682Z,11.23
2019-03-24T10:20:39.942Z,11.50
2019-03-24T10:23:20.900Z,11.77
2019-03-24T10:26:02.088Z,11.73
2019-03-24T10:28:43.290Z,12.00
2019-03-24T10:31:24.535Z,11.43
2019-03-24T10:34:05.349Z,12.85
2019-03-24T10:36:46.327Z,11.60
2019-03-24T10:39:27.360Z,11.70
2019-03-24T10:42:08.571Z,11.87
2019-03-24T10:44:49.843Z,11.87
2019-03-24T10:47:30.817Z,12.65
2019-03-24T10:50:14.249Z,11.30
2019-03-24T10:52:53.402Z,10.15
2019-03-24T10:55:34.335Z,10.40
2019-03-24T10:58:15.298Z,8.93
2019-03-24T11:00:56.414Z,9.20
2019-03-24T11:03:37.367Z,10.00
2019-03-24T11:06:19.404Z,9.77
2019-03-24T11:09:00.745Z,10.03
2019-03-24T11:11:41.409Z,8.88
2019-03-24T11:14:22.189Z,8.93
2019-03-24T11:17:02.533Z,9.67
2019-03-24T11:19:42.797Z,9.20
2019-03-24T11:22:23.238Z,9.23
2019-03-24T11:25:03.652Z,9.23
2019-03-24T11:27:44.392Z,9.67
2019-03-24T11:30:25.269Z,9.90
2019-03-24T11:33:06.211Z,9.97
2019-03-24T11:35:47.162Z,9.33
2019-03-24T11:38:28.441Z,9.23
2019-03-24T11:41:10.360Z,9.60
2019-03-24T11:43:51.053Z,9.37
2019-03-24T11:46:31.959Z,9.60
2019-03-24T11:49:12.161Z,9.37
2019-03-24T11:51:52.535Z,9.70
2019-03-24T11:54:32.892Z,9.70
2019-03-24T11:57:13.289Z,8.73
2019-03-24T11:59:53.604Z,10.27
2019-03-24T12:02:34.414Z,10.50
2019-03-24T12:05:15.328Z,11.30
2019-03-24T12:07:56.365Z,10.17
2019-03-24T12:10:37.034Z,10.53
2019-03-24T12:13:17.366Z,10.30
2019-03-24T12:15:58.085Z,11.10
2019-03-24T12:18:39.297Z,10.83
2019-03-24T12:21:19.775Z,11.67
2019-03-24T12:24:00.628Z,11.73
2019-03-24T12:26:41.271Z,13.17
2019-03-24T12:29:21.984Z,12.80
2019-03-24T12:32:03.130Z,13.37
2019-03-24T12:34:44.084Z,13.17
2019-03-24T12:37:25.361Z,12.17
2019-03-24T12:40:06.406Z,12.53
2019-03-24T12:42:47.379Z,12.07
2019-03-24T12:45:29.261Z,13.13
2019-03-24T12:48:10.954Z,13.93
2019-03-24T12:50:52.098Z,13.90
2019-03-24T12:53:33.349Z,14.07
2019-03-24T12:56:14.304Z,13.63
2019-03-24T12:58:55.935Z,13.40
2019-03-24T13:01:36.915Z,13.70
2019-03-24T13:04:17.859Z,14.13
2019-03-24T13:06:58.815Z,13.83
2019-03-24T13:09:39.416Z,15.53
2019-03-24T13:12:20.415Z,14.47
2019-03-24T13:15:01.277Z,14.00
2019-03-24T13:17:42.284Z,15.13
2019-03-24T13:20:36.576Z,15.57
2019-03-24T13:23:04.726Z,16.10
2019-03-24T13:25:45.918Z,18.03
2019-03-24T13:28:26.905Z,18.87
2019-03-24T13:31:08.163Z,17.10
2019-03-24T13:33:48.796Z,16.90
2019-03-24T13:36:30.074Z,16.13
2019-03-24T13:39:11.119Z,17.33
2019-03-24T13:41:52.186Z,24.53
2019-03-24T13:44:33.285Z,24.47
2019-03-24T13:47:14.556Z,20.93
2019-03-24T13:49:55.836Z,25.37
2019-03-24T13:52:37.136Z,27.53
2019-03-24T13:55:19.167Z,28.67
2019-03-24T13:58:00.473Z,32.07
2019-03-24T14:00:41.886Z,28.80
2019-03-24T14:03:22.881Z,57.57
2019-03-24T14:06:03.851Z,48.80
2019-03-24T14:08:44.816Z,48.83
2019-03-24T14:11:25.989Z,46.23
2019-03-24T14:14:07.996Z,43.83
2019-03-24T14:16:50.555Z,45.30
2019-03-24T14:19:31.824Z,43.43
2019-03-24T14:22:12.807Z,44.93
2019-03-24T14:24:53.677Z,47.90
2019-03-24T14:27:35.046Z,45.83
2019-03-24T14:30:15.994Z,50.90
2019-03-24T14:32:57.024Z,53.07
2019-03-24T14:35:38.241Z,49.60
2019-03-24T14:38:19.834Z,48.80
2019-03-24T14:41:00.377Z,52.27
2019-03-24T14:43:41.755Z,50.07
2019-03-24T14:46:23.039Z,52.03
2019-03-24T14:49:03.747Z,52.83
2019-03-24T14:51:45.286Z,52.53
2019-03-24T14:54:27.105Z,54.40
2019-03-24T14:57:08.803Z,57.93
2019-03-24T14:59:49.458Z,56.47
2019-03-24T15:02:30.395Z,52.90
2019-03-24T15:05:11.677Z,68.00
2019-03-24T15:07:52.465Z,59.10
2019-03-24T15:10:33.605Z,56.97
2019-03-24T15:13:14.568Z,64.00
2019-03-24T15:15:56.184Z,61.47
2019-03-24T15:18:37.119Z,61.00
2019-03-24T15:21:17.755Z,62.63
2019-03-24T15:23:58.718Z,63.63
2019-03-24T15:26:40.007Z,61.83
2019-03-24T15:29:20.663Z,60.20
2019-03-24T15:32:01.923Z,61.33
2019-03-24T15:34:42.739Z,63.50
2019-03-24T15:37:23.771Z,59.43
2019-03-24T15:40:05.129Z,59.17
2019-03-24T15:42:46.112Z,55.90
2019-03-24T15:45:26.594Z,61.13
2019-03-24T15:48:08.094Z,59.13
2019-03-24T15:50:49.172Z,56.93
2019-03-24T15:53:30.142Z,58.67
2019-03-24T15:56:10.892Z,62.33
2019-03-24T15:58:51.141Z,63.57
2019-03-24T16:01:32.165Z,61.23
2019-03-24T16:04:13.115Z,62.57
2019-03-24T16:06:53.763Z,60.37
2019-03-24T16:09:35.038Z,59.07
2019-03-24T16:12:16.001Z,58.50
2019-03-24T16:14:58.876Z,57.00
2019-03-24T16:17:39.265Z,59.93
2019-03-24T16:20:19.836Z,61.93
2019-03-24T16:23:00.793Z,64.30
2019-03-24T16:25:42.075Z,63.60
2019-03-24T16:28:22.734Z,69.97
2019-03-24T16:31:03.674Z,70.93
2019-03-24T16:33:44.640Z,69.57
2019-03-24T16:36:25.456Z,74.13
2019-03-24T16:39:06.555Z,72.47
2019-03-24T16:41:47.526Z,70.43
2019-03-24T16:44:28.160Z,72.27
2019-03-24T16:47:09.753Z,69.97
2019-03-24T16:49:50.846Z,64.80
2019-03-24T16:52:32.002Z,69.60
2019-03-24T16:55:12.959Z,73.37
2019-03-24T16:57:53.923Z,69.33
2019-03-24T17:00:34.874Z,69.83
2019-03-24T17:03:16.487Z,63.63
2019-03-24T17:05:57.397Z,62.97
2019-03-24T17:08:38.075Z,63.93
2019-03-24T17:11:19.040Z,61.10
2019-03-24T17:14:00.326Z,62.00
2019-03-24T17:16:41.297Z,64.10
2019-03-24T17:19:21.974Z,60.77
2019-03-24T17:22:03.496Z,62.77
2019-03-24T17:24:44.156Z,63.20
2019-03-24T17:27:25.298Z,61.03
2019-03-24T17:30:06.551Z,61.20
2019-03-24T17:32:47.750Z,58.83
2019-03-24T17:35:28.315Z,58.80
2019-03-24T17:38:09.130Z,63.77
2019-03-24T17:40:50.035Z,62.00
2019-03-24T17:43:30.999Z,62.23
2019-03-24T17:46:11.966Z,64.40
2019-03-24T17:48:53.235Z,68.70
2019-03-24T17:51:34.716Z,72.23
2019-03-24T17:54:15.352Z,70.57
2019-03-24T17:56:56.319Z,62.90
2019-03-24T17:59:37.745Z,65.50
2019-03-24T18:02:18.536Z,65.53
2019-03-24T18:04:59.290Z,66.30
2019-03-24T18:07:40.476Z,65.63
2019-03-24T18:10:21.447Z,63.07
2019-03-24T18:13:02.075Z,60.30
2019-03-24T18:15:43.067Z,60.63
2019-03-24T18:18:24.213Z,57.33
2019-03-24T18:21:05.276Z,56.00
2019-03-24T18:23:46.317Z,55.73
2019-03-24T18:26:27.531Z,57.80
2019-03-24T18:29:08.532Z,55.10
2019-03-24T18:31:50.078Z,54.73
2019-03-24T18:34:31.035Z,57.77
2019-03-24T18:37:12.632Z,55.43
2019-03-24T18:39:53.676Z,55.33
2019-03-24T18:42:34.585Z,56.17
2019-03-24T18:45:16.165Z,54.97
2019-03-24T18:47:57.115Z,53.17
2019-03-24T18:50:38.565Z,54.13
2019-03-24T18:53:19.183Z,55.73
2019-03-24T18:56:00.350Z,56.53
2019-03-24T18:58:41.273Z,61.10
2019-03-24T19:01:22.233Z,63.50
2019-03-24T19:04:03.084Z,63.60
2019-03-24T19:06:44.800Z,61.97
2019-03-24T19:09:26.005Z,67.17
2019-03-24T19:12:07.739Z,56.47
2019-03-24T19:14:48.954Z,55.50
2019-03-24T19:17:29.592Z,55.13
2019-03-24T19:20:10.872Z,52.73
2019-03-24T19:22:51.535Z,54.90
2019-03-24T19:25:32.480Z,59.93
2019-03-24T19:28:13.149Z,58.93
2019-03-24T19:30:54.275Z,58.57
2019-03-24T19:33:35.458Z,59.07
2019-03-24T19:36:15.993Z,55.60
2019-03-24T19:38:57.296Z,55.03
2019-03-24T19:41:38.297Z,56.30
2019-03-24T19:44:18.891Z,56.50
2019-03-24T19:46:59.506Z,54.30
2019-03-24T19:49:40.303Z,54.83
2019-03-24T19:52:21.111Z,56.20
2019-03-24T19:55:01.747Z,55.43
2019-03-24T19:57:43.031Z,55.73
2019-03-24T20:00:23.426Z,55.17
2019-03-24T20:03:05.275Z,55.73
2019-03-24T20:05:46.875Z,54.60
2019-03-24T20:08:28.156Z,55.87
2019-03-24T20:11:09.781Z,56.63
2019-03-24T20:13:50.733Z,55.67
2019-03-24T20:16:32.192Z,54.67
2019-03-24T20:19:13.271Z,55.43
2019-03-24T20:21:54.553Z,56.27
2019-03-24T20:24:35.196Z,55.73
2019-03-24T20:27:17.115Z,60.47
2019-03-24T20:29:58.712Z,61.00
2019-03-24T20:32:39.350Z,61.43
2019-03-24T20:35:20.642Z,61.77
2019-03-24T20:38:01.925Z,67.77
2019-03-24T20:40:42.974Z,65.20
2019-03-24T20:43:23.967Z,67.73
2019-03-24T20:46:05.451Z,70.40
2019-03-24T20:48:46.657Z,62.10
2019-03-24T20:51:27.192Z,59.40
2019-03-24T20:54:08.536Z,60.47
2019-03-24T20:56:49.620Z,56.63
2019-03-24T20:59:30.553Z,57.33
2019-03-24T21:02:11.834Z,59.27
2019-03-24T21:04:53.437Z,56.03
2019-03-24T21:07:35.039Z,57.17
2019-03-24T21:10:16.311Z,55.20
2019-03-24T21:12:57.597Z,55.97
2019-03-24T21:15:38.875Z,57.30
2019-03-24T21:18:19.851Z,59.23
2019-03-24T21:21:00.684Z,64.80
2019-03-24T21:23:41.483Z,64.27
2019-03-24T21:26:22.633Z,65.47
2019-03-24T21:29:04.009Z,67.13
2019-03-24T21:31:45.239Z,69.10
2019-03-24T21:34:27.195Z,66.27
2019-03-24T21:37:08.792Z,73.10
2019-03-24T21:39:50.580Z,65.93
2019-03-24T21:42:32.005Z,68.37
2019-03-24T21:45:12.907Z,68.30
2019-03-24T21:47:54.005Z,67.53
2019-03-24T21:50:34.876Z,71.67
2019-03-24T21:53:15.835Z,65.37
2019-03-24T21:55:57.114Z,62.87
2019-03-24T21:58:38.395Z,62.60
2019-03-24T22:01:19.357Z,61.00
2019-03-24T22:04:00.319Z,61.67
2019-03-24T22:06:41.938Z,67.93
2019-03-24T22:09:23.532Z,62.70
2019-03-24T22:12:04.150Z,61.80
2019-03-24T22:14:45.434Z,61.30
2019-03-24T22:17:26.713Z,60.30
2019-03-24T22:20:07.368Z,61.80
2019-03-24T22:22:48.650Z,65.00
2019-03-24T22:25:29.653Z,68.03
2019-03-24T22:28:10.889Z,66.60
2019-03-24T22:30:52.150Z,66.70
2019-03-24T22:33:32.984Z,60.47
2019-03-24T22:36:13.801Z,61.63
2019-03-24T22:38:55.040Z,64.20
2019-03-24T22:41:35.992Z,62.50
2019-03-24T22:44:17.910Z,61.50
2019-03-24T22:46:59.084Z,64.53
2019-03-24T22:49:39.842Z,63.47
2019-03-24T22:52:20.560Z,69.50
2019-03-24T22:55:01.507Z,70.07
2019-03-24T22:57:42.856Z,68.00
2019-03-24T23:00:23.674Z,66.70
2019-03-24T23:03:04.954Z,67.43
2019-03-24T23:05:46.105Z,66.43
2019-03-24T23:08:26.926Z,67.10
2019-03-24T23:11:08.045Z,66.80
2019-03-24T23:13:48.545Z,68.77
2019-03-24T23:16:29.516Z,72.23
2019-03-24T23:19:10.698Z,72.57
2019-03-24T23:21:52.312Z,68.23
2019-03-24T23:24:33.595Z,68.13
2019-03-24T23:27:14.238Z,71.63
2019-03-24T23:29:55.516Z,65.40
2019-03-24T23:32:36.480Z,71.57
2019-03-24T23:35:17.421Z,68.23
2019-03-24T23:37:58.071Z,66.63
2019-03-24T23:40:39.039Z,68.00
2019-03-24T23:43:19.351Z,69.83
2019-03-24T23:46:00.431Z,68.97
2019-03-24T23:48:41.279Z,70.57
2019-03-24T23:51:22.593Z,69.80
2019-03-24T23:54:03.645Z,75.00
2019-03-24T23:56:44.489Z,71.27
2019-03-24T23:59:25.113Z,90.77
